Wetterstation Vordersexau
Wetterdaten: Woche 09.09.13 - 15.09.13 (KW37)
Datum Zeit Temp. A. Feuchte A. Luftdruck Regen Wind Richtung Taupunkt Windchill Windben
09.09.2013 00:00 13,6 C 67 % 1018,2 hPa 1,0 l/m 0,0 km/h W 7,6 C 13,6 C 0,0 km/h
09.09.2013 01:00 13,0 C 68 % 1018,2 hPa 0,0 l/m 0,0 km/h W 7,2 C 13,0 C 0,0 km/h
09.09.2013 02:00 13,2 C 67 % 1018,3 hPa 0,0 l/m 0,0 km/h SW 7,2 C 13,2 C 0,0 km/h
09.09.2013 03:00 13,4 C 67 % 1018,4 hPa 0,0 l/m 0,0 km/h W 7,4 C 13,4 C 0,0 km/h
09.09.2013 04:00 13,3 C 61 % 1018,7 hPa 1,0 l/m 1,3 km/h SW 5,9 C 13,3 C 0,7 km/h
09.09.2013 05:00 12,9 C 66 % 1018,5 hPa 0,0 l/m 0,0 km/h S 6,7 C 12,9 C 0,0 km/h
09.09.2013 06:00 12,3 C 69 % 1018,6 hPa 0,0 l/m 25,3 km/h W 6,8 C 4,9 C 14,0 km/h
09.09.2013 07:00 11,9 C 70 % 1019,3 hPa 0,0 l/m 7,1 km/h S 6,6 C 11,4 C 4,0 km/h
09.09.2013 08:00 12,1 C 71 % 1019,7 hPa 0,0 l/m 1,9 km/h W-NW 7,0 C 12,1 C 1,1 km/h
09.09.2013 09:00 17,5 C 75 % 1019,9 hPa 0,0 l/m 10,4 km/h NW 13,0 C 15,7 C 5,8 km/h
09.09.2013 10:00 19,1 C 61 % 1020,1 hPa 0,0 l/m 20,1 km/h W-SW 11,4 C 15,0 C 11,2 km/h
09.09.2013 11:00 21,8 C 56 % 1019,8 hPa 0,0 l/m 22,0 km/h W 12,6 C 18,2 C 12,2 km/h
09.09.2013 12:00 22,9 C 48 % 1019,3 hPa 0,0 l/m 16,2 km/h W-NW 11,3 C 20,5 C 9,0 km/h
09.09.2013 13:00 21,7 C 48 % 1019,0 hPa 0,0 l/m 1,9 km/h W 10,2 C 21,7 C 1,1 km/h
09.09.2013 14:00 22,9 C 46 % 1018,0 hPa 0,0 l/m 18,8 km/h W 10,7 C 20,1 C 10,4 km/h
09.09.2013 15:00 24,1 C 42 % 1017,4 hPa 0,0 l/m 3,2 km/h W-SW 10,4 C 24,1 C 1,8 km/h
09.09.2013 16:00 25,3 C 41 % 1017,1 hPa 0,0 l/m 0,6 km/h W-SW 11,1 C 25,3 C 0,4 km/h
09.09.2013 17:00 25,8 C 36 % 1016,6 hPa 0,0 l/m 23,3 km/h S 9,6 C 23,4 C 13,0 km/h
09.09.2013 18:00 23,1 C 39 % 1016,2 hPa 0,0 l/m 3,9 km/h W-NW 8,4 C 23,1 C 2,2 km/h
09.09.2013 19:00 16,9 C 53 % 1016,1 hPa 0,0 l/m 0,0 km/h SO 7,3 C 16,9 C 0,0 km/h
09.09.2013 20:00 15,2 C 68 % 1015,9 hPa 0,0 l/m 0,0 km/h S-SO 9,3 C 15,2 C 0,0 km/h
09.09.2013 21:00 14,8 C 73 % 1015,8 hPa 0,0 l/m 0,0 km/h S-SO 10,0 C 14,8 C 0,0 km/h
09.09.2013 22:00 15,4 C 71 % 1015,5 hPa 0,0 l/m 0,0 km/h S 10,2 C 15,4 C 0,0 km/h
09.09.2013 23:00 15,8 C 68 % 1014,7 hPa 0,0 l/m 6,5 km/h W-SW 9,9 C 15,8 C 3,6 km/h
10.09.2013 00:00 15,8 C 69 % 1014,6 hPa 0,0 l/m 0,0 km/h S-SW 10,1 C 15,8 C 0,0 km/h
10.09.2013 01:00 15,8 C 69 % 1014,1 hPa 0,0 l/m 20,1 km/h SW 10,1 C 10,8 C 11,2 km/h
10.09.2013 02:00 15,6 C 70 % 1013,9 hPa 0,0 l/m 13,6 km/h W 10,1 C 12,4 C 7,6 km/h
10.09.2013 03:00 15,9 C 70 % 1013,6 hPa 0,0 l/m 11,0 km/h W-SW 10,4 C 13,7 C 6,1 km/h
10.09.2013 04:00 16,2 C 72 % 1013,0 hPa 0,0 l/m 13,6 km/h W 11,1 C 13,1 C 7,6 km/h
10.09.2013 05:00 15,4 C 76 % 1012,6 hPa 0,0 l/m 24,0 km/h SW 11,2 C 9,4 C 13,3 km/h
10.09.2013 06:00 13,8 C 81 % 1012,4 hPa 0,5 l/m 12,3 km/h W 10,6 C 10,8 C 6,8 km/h
10.09.2013 07:00 13,8 C 78 % 1013,1 hPa 0,5 l/m 0,0 km/h NW 10,0 C 13,8 C 0,0 km/h
10.09.2013 08:00 13,1 C 77 % 1013,2 hPa 1,6 l/m 0,0 km/h S 9,2 C 13,1 C 0,0 km/h
10.09.2013 09:00 12,9 C 77 % 1013,3 hPa 5,2 l/m 0,0 km/h SO 9,0 C 12,9 C 0,0 km/h
10.09.2013 10:00 13,3 C 73 % 1013,7 hPa 0,5 l/m 0,0 km/h NW 8,6 C 13,3 C 0,0 km/h
10.09.2013 11:00 12,2 C 79 % 1014,2 hPa 6,7 l/m 0,0 km/h S 8,7 C 12,2 C 0,0 km/h
10.09.2013 12:00 12,1 C 74 % 1015,4 hPa 3,6 l/m 0,0 km/h S-SO 7,6 C 12,1 C 0,0 km/h
10.09.2013 13:00 12,3 C 76 % 1015,9 hPa 0,5 l/m 0,0 km/h SO 8,2 C 12,3 C 0,0 km/h
10.09.2013 14:00 16,1 C 82 % 1016,2 hPa 0,0 l/m 0,0 km/h SO 13,0 C 16,1 C 0,0 km/h
10.09.2013 15:00 22,6 C 60 % 1015,7 hPa 0,0 l/m 0,0 km/h S-SO 14,4 C 22,6 C 0,0 km/h
10.09.2013 16:00 21,2 C 55 % 1015,7 hPa 0,0 l/m 11,0 km/h S-SO 11,8 C 19,7 C 6,1 km/h
10.09.2013 17:00 25,5 C 48 % 1015,5 hPa 0,0 l/m 0,0 km/h NW 13,7 C 25,5 C 0,0 km/h
10.09.2013 18:00 16,7 C 62 % 1015,8 hPa 0,0 l/m 0,0 km/h W 9,4 C 16,7 C 0,0 km/h
10.09.2013 19:00 15,4 C 66 % 1015,7 hPa 0,0 l/m 0,0 km/h W-NW 9,1 C 15,4 C 0,0 km/h
10.09.2013 20:00 10,9 C 78 % 1016,1 hPa 0,0 l/m 0,0 km/h SO 7,2 C 10,9 C 0,0 km/h
10.09.2013 21:00 9,1 C 82 % 1016,7 hPa 0,0 l/m 0,0 km/h O-SO 6,2 C 9,1 C 0,0 km/h
10.09.2013 22:00 8,4 C 82 % 1016,7 hPa 0,0 l/m 0,0 km/h SO 5,5 C 8,4 C 0,0 km/h
10.09.2013 23:00 8,1 C 80 % 1016,8 hPa 0,0 l/m 0,0 km/h SO 4,9 C 8,1 C 0,0 km/h
11.09.2013 00:00 8,3 C 79 % 1016,6 hPa 0,0 l/m 0,0 km/h SO 4,9 C 8,3 C 0,0 km/h
11.09.2013 01:00 8,5 C 76 % 1016,4 hPa 0,0 l/m 0,0 km/h O-NO 4,5 C 8,5 C 0,0 km/h
11.09.2013 02:00 9,3 C 75 % 1016,2 hPa 0,0 l/m 0,0 km/h O-NO 5,1 C 9,3 C 0,0 km/h
11.09.2013 03:00 9,5 C 74 % 1016,1 hPa 0,0 l/m 0,0 km/h O-NO 5,1 C 9,5 C 0,0 km/h
11.09.2013 04:00 8,3 C 77 % 1015,5 hPa 0,0 l/m 0,0 km/h NO 4,5 C 8,3 C 0,0 km/h
11.09.2013 05:00 7,9 C 75 % 1015,2 hPa 0,0 l/m 0,0 km/h NO 3,7 C 7,9 C 0,0 km/h
11.09.2013 06:00 8,4 C 73 % 1014,9 hPa 0,0 l/m 0,0 km/h N-NO 3,8 C 8,4 C 0,0 km/h
11.09.2013 07:00 9,3 C 70 % 1015,0 hPa 0,0 l/m 2,6 km/h S-SW 4,1 C 9,3 C 1,4 km/h
11.09.2013 08:00 10,7 C 77 % 1015,0 hPa 0,0 l/m 5,8 km/h W 6,8 C 10,7 C 3,2 km/h
11.09.2013 09:00 11,2 C 83 % 1015,1 hPa 0,0 l/m 16,2 km/h S 8,4 C 6,1 C 9,0 km/h
11.09.2013 10:00 10,5 C 82 % 1015,3 hPa 0,5 l/m 23,3 km/h SW 7,6 C 3,0 C 13,0 km/h
11.09.2013 11:00 10,9 C 82 % 1015,0 hPa 0,5 l/m 13,0 km/h S-SW 7,9 C 7,1 C 7,2 km/h
11.09.2013 12:00 11,1 C 83 % 1014,9 hPa 0,0 l/m 14,9 km/h W 8,3 C 6,5 C 8,3 km/h
11.09.2013 13:00 11,8 C 82 % 1014,9 hPa 0,0 l/m 0,0 km/h W 8,8 C 11,8 C 0,0 km/h
11.09.2013 14:00 12,2 C 82 % 1015,0 hPa 0,0 l/m 8,4 km/h W 9,2 C 10,9 C 4,7 km/h
11.09.2013 15:00 12,1 C 82 % 1014,9 hPa 0,5 l/m 13,6 km/h W-SW 9,1 C 8,2 C 7,6 km/h
11.09.2013 16:00 13,5 C 80 % 1014,9 hPa 0,0 l/m 4,5 km/h W-SW 10,1 C 13,5 C 2,5 km/h
11.09.2013 17:00 12,3 C 82 % 1014,8 hPa 0,0 l/m 25,3 km/h S 9,3 C 4,9 C 14,0 km/h
11.09.2013 18:00 11,6 C 81 % 1015,0 hPa 0,5 l/m 18,8 km/h W 8,5 C 5,7 C 10,4 km/h
11.09.2013 19:00 11,6 C 82 % 1014,9 hPa 0,0 l/m 4,5 km/h W-NW 8,6 C 11,6 C 2,5 km/h
11.09.2013 20:00 11,8 C 82 % 1014,9 hPa 0,0 l/m 3,2 km/h S-SW 8,8 C 11,8 C 1,8 km/h
11.09.2013 21:00 11,9 C 82 % 1015,0 hPa 0,0 l/m 24,6 km/h W 8,9 C 4,5 C 13,7 km/h
11.09.2013 22:00 11,4 C 80 % 1014,7 hPa 0,0 l/m 19,4 km/h W-SW 8,1 C 5,3 C 10,8 km/h
11.09.2013 23:00 11,3 C 76 % 1014,4 hPa 1,0 l/m 16,8 km/h SW 7,2 C 6,0 C 9,4 km/h
12.09.2013 00:00 11,3 C 70 % 1014,1 hPa 2,1 l/m 32,4 km/h SW 6,0 C 2,0 C 18,0 km/h
12.09.2013 01:00 11,4 C 65 % 1014,1 hPa 1,0 l/m 19,4 km/h W-SW 5,1 C 5,3 C 10,8 km/h
12.09.2013 02:00 11,4 C 61 % 1014,3 hPa 1,0 l/m 15,6 km/h W 4,2 C 6,6 C 8,6 km/h
12.09.2013 03:00 11,5 C 60 % 1014,2 hPa 0,0 l/m 1,3 km/h W-SW 4,0 C 11,5 C 0,7 km/h
12.09.2013 04:00 11,4 C 58 % 1014,3 hPa 1,6 l/m 0,0 km/h W 3,4 C 11,4 C 0,0 km/h
12.09.2013 05:00 11,3 C 57 % 1014,2 hPa 1,0 l/m 3,9 km/h W 3,1 C 11,3 C 2,2 km/h
12.09.2013 06:00 11,3 C 56 % 1014,3 hPa 0,5 l/m 3,9 km/h W-SW 2,8 C 11,3 C 2,2 km/h
12.09.2013 07:00 11,3 C 56 % 1014,8 hPa 0,0 l/m 1,9 km/h W 2,8 C 11,3 C 1,1 km/h
12.09.2013 08:00 11,6 C 57 % 1015,1 hPa 0,0 l/m 1,3 km/h SW 3,4 C 11,6 C 0,7 km/h
12.09.2013 09:00 11,7 C 59 % 1015,5 hPa 0,5 l/m 0,0 km/h W-SW 4,0 C 11,7 C 0,0 km/h
12.09.2013 10:00 11,8 C 67 % 1015,9 hPa 0,0 l/m 0,6 km/h S-SW 5,9 C 11,8 C 0,4 km/h
12.09.2013 11:00 12,4 C 77 % 1016,1 hPa 0,0 l/m 5,8 km/h W 8,5 C 12,4 C 3,2 km/h
12.09.2013 12:00 12,5 C 76 % 1016,4 hPa 0,5 l/m 8,4 km/h W 8,4 C 11,2 C 4,7 km/h
12.09.2013 13:00 12,6 C 79 % 1016,5 hPa 0,0 l/m 3,9 km/h W 9,1 C 12,6 C 2,2 km/h
12.09.2013 14:00 13,3 C 78 % 1016,5 hPa 0,5 l/m 0,0 km/h W 9,5 C 13,3 C 0,0 km/h
12.09.2013 15:00 14,9 C 83 % 1016,6 hPa 0,0 l/m 0,0 km/h S 12,0 C 14,9 C 0,0 km/h
12.09.2013 16:00 14,6 C 82 % 1016,5 hPa 0,0 l/m 0,0 km/h S 11,6 C 14,6 C 0,0 km/h
12.09.2013 17:00 13,9 C 82 % 1016,6 hPa 0,0 l/m 0,0 km/h SO 10,9 C 13,9 C 0,0 km/h
12.09.2013 18:00 13,9 C 82 % 1016,9 hPa 0,0 l/m 0,0 km/h S 10,9 C 13,9 C 0,0 km/h
12.09.2013 19:00 12,9 C 83 % 1017,0 hPa 0,0 l/m 0,0 km/h W-NW 10,1 C 12,9 C 0,0 km/h
12.09.2013 20:00 12,1 C 82 % 1017,6 hPa 0,0 l/m 0,0 km/h W-NW 9,1 C 12,1 C 0,0 km/h
12.09.2013 21:00 11,9 C 79 % 1018,3 hPa 0,0 l/m 0,0 km/h W-NW 8,4 C 11,9 C 0,0 km/h
12.09.2013 22:00 11,4 C 77 % 1018,6 hPa 0,0 l/m 0,0 km/h W-NW 7,5 C 11,4 C 0,0 km/h
12.09.2013 23:00 11,3 C 74 % 1019,1 hPa 0,0 l/m 0,0 km/h N-NO 6,8 C 11,3 C 0,0 km/h
13.09.2013 00:00 11,0 C 73 % 1019,4 hPa 0,0 l/m 0,0 km/h N-NO 6,4 C 11,0 C 0,0 km/h
13.09.2013 01:00 10,6 C 70 % 1019,3 hPa 0,0 l/m 0,0 km/h N-NO 5,4 C 10,6 C 0,0 km/h
13.09.2013 02:00 10,6 C 69 % 1019,3 hPa 0,0 l/m 0,0 km/h N-NO 5,2 C 10,6 C 0,0 km/h
13.09.2013 03:00 9,8 C 69 % 1019,0 hPa 0,0 l/m 0,0 km/h O-NO 4,4 C 9,8 C 0,0 km/h
13.09.2013 04:00 10,2 C 67 % 1019,2 hPa 0,0 l/m 0,0 km/h SO 4,4 C 10,2 C 0,0 km/h
13.09.2013 05:00 10,6 C 66 % 1019,4 hPa 0,0 l/m 0,0 km/h SO 4,5 C 10,6 C 0,0 km/h
13.09.2013 06:00 10,7 C 64 % 1019,5 hPa 0,0 l/m 0,0 km/h SO 4,2 C 10,7 C 0,0 km/h
13.09.2013 07:00 10,6 C 63 % 1019,6 hPa 0,5 l/m 0,0 km/h SO 3,9 C 10,6 C 0,0 km/h
13.09.2013 08:00 11,2 C 61 % 1020,2 hPa 0,0 l/m 0,0 km/h SO 4,0 C 11,2 C 0,0 km/h
13.09.2013 09:00 14,8 C 50 % 1020,3 hPa 0,0 l/m 1,3 km/h W 4,5 C 14,8 C 0,7 km/h
13.09.2013 10:00 19,8 C 69 % 1020,2 hPa 0,0 l/m 0,0 km/h S-SW 13,9 C 19,8 C 0,0 km/h
13.09.2013 11:00 21,8 C 60 % 1020,5 hPa 0,0 l/m 6,5 km/h W-SW 13,7 C 21,8 C 3,6 km/h
13.09.2013 12:00 19,5 C 61 % 1020,4 hPa 0,0 l/m 0,0 km/h S 11,8 C 19,5 C 0,0 km/h
13.09.2013 13:00 23,4 C 52 % 1020,1 hPa 0,0 l/m 3,9 km/h SO 13,0 C 23,4 C 2,2 km/h
13.09.2013 14:00 23,6 C 52 % 1019,8 hPa 0,0 l/m 0,0 km/h S-SW 13,2 C 23,6 C 0,0 km/h
13.09.2013 15:00 24,6 C 48 % 1019,7 hPa 0,0 l/m 0,0 km/h W-NW 12,8 C 24,6 C 0,0 km/h
13.09.2013 16:00 19,3 C 58 % 1019,3 hPa 0,0 l/m 7,8 km/h W 10,8 C 18,7 C 4,3 km/h
13.09.2013 17:00 21,8 C 54 % 1019,0 hPa 0,0 l/m 0,0 km/h SO 12,1 C 21,8 C 0,0 km/h
13.09.2013 18:00 18,7 C 63 % 1018,8 hPa 0,0 l/m 0,0 km/h O-NO 11,5 C 18,7 C 0,0 km/h
13.09.2013 19:00 16,1 C 73 % 1018,9 hPa 0,0 l/m 0,0 km/h O-NO 11,3 C 16,1 C 0,0 km/h
13.09.2013 20:00 13,8 C 79 % 1018,9 hPa 0,0 l/m 0,0 km/h NO 10,2 C 13,8 C 0,0 km/h
13.09.2013 21:00 12,6 C 81 % 1019,4 hPa 0,0 l/m 0,0 km/h NO 9,4 C 12,6 C 0,0 km/h
13.09.2013 22:00 12,4 C 82 % 1019,7 hPa 0,0 l/m 0,0 km/h SO 9,4 C 12,4 C 0,0 km/h
13.09.2013 23:00 12,2 C 81 % 1019,4 hPa 0,0 l/m 0,0 km/h O-SO 9,0 C 12,2 C 0,0 km/h
14.09.2013 00:00 12,3 C 81 % 1019,0 hPa 0,0 l/m 0,0 km/h O-SO 9,1 C 12,3 C 0,0 km/h
14.09.2013 01:00 12,4 C 81 % 1018,2 hPa 0,0 l/m 0,0 km/h NO 9,2 C 12,4 C 0,0 km/h
14.09.2013 02:00 12,9 C 81 % 1018,1 hPa 0,0 l/m 0,0 km/h S-SW 9,7 C 12,9 C 0,0 km/h
14.09.2013 03:00 14,0 C 82 % 1017,4 hPa 0,0 l/m 0,0 km/h SW 11,0 C 14,0 C 0,0 km/h
14.09.2013 04:00 14,6 C 82 % 1016,9 hPa 0,0 l/m 0,0 km/h S 11,6 C 14,6 C 0,0 km/h
14.09.2013 05:00 15,1 C 81 % 1016,3 hPa 0,0 l/m 19,4 km/h W-SW 11,9 C 10,0 C 10,8 km/h
14.09.2013 06:00 15,3 C 81 % 1016,0 hPa 0,0 l/m 5,2 km/h S-SO 12,1 C 15,3 C 2,9 km/h
14.09.2013 07:00 14,4 C 81 % 1015,7 hPa 0,0 l/m 0,0 km/h W-NW 11,2 C 14,4 C 0,0 km/h
14.09.2013 08:00 15,2 C 82 % 1015,5 hPa 0,5 l/m 7,1 km/h S 12,1 C 14,8 C 4,0 km/h
14.09.2013 09:00 14,8 C 77 % 1015,4 hPa 1,0 l/m 17,5 km/h S-SW 10,8 C 10,2 C 9,7 km/h
14.09.2013 10:00 16,0 C 78 % 1015,3 hPa 0,0 l/m 0,0 km/h S 12,2 C 16,0 C 0,0 km/h
14.09.2013 11:00 17,6 C 81 % 1015,2 hPa 0,0 l/m 0,0 km/h S-SW 14,3 C 17,6 C 0,0 km/h
14.09.2013 12:00 19,5 C 78 % 1014,6 hPa 0,0 l/m 0,0 km/h W-SW 15,6 C 19,5 C 0,0 km/h
14.09.2013 13:00 20,4 C 73 % 1014,4 hPa 0,0 l/m 7,8 km/h W-SW 15,4 C 19,8 C 4,3 km/h
14.09.2013 14:00 22,6 C 67 % 1013,9 hPa 0,0 l/m 11,7 km/h W 16,2 C 21,1 C 6,5 km/h
14.09.2013 15:00 21,8 C 69 % 1013,5 hPa 0,0 l/m 23,3 km/h W-NW 15,9 C 18,0 C 13,0 km/h
14.09.2013 16:00 19,8 C 73 % 1013,2 hPa 0,0 l/m 14,9 km/h W-SW 14,8 C 17,0 C 8,3 km/h
14.09.2013 17:00 19,8 C 74 % 1012,7 hPa 0,0 l/m 24,0 km/h W-SW 15,0 C 15,3 C 13,3 km/h
14.09.2013 18:00 18,8 C 76 % 1012,3 hPa 0,0 l/m 0,0 km/h W-SW 14,5 C 18,8 C 0,0 km/h
14.09.2013 19:00 17,6 C 78 % 1012,3 hPa 0,0 l/m 1,3 km/h NW 13,7 C 17,6 C 0,7 km/h
14.09.2013 20:00 16,3 C 81 % 1012,2 hPa 0,0 l/m 0,0 km/h N-NO 13,0 C 16,3 C 0,0 km/h
14.09.2013 21:00 15,3 C 80 % 1012,6 hPa 0,0 l/m 0,0 km/h NO 11,9 C 15,3 C 0,0 km/h
14.09.2013 22:00 14,9 C 77 % 1012,4 hPa 0,0 l/m 0,0 km/h O-SO 10,9 C 14,9 C 0,0 km/h
14.09.2013 23:00 14,8 C 75 % 1012,1 hPa 0,0 l/m 0,0 km/h NO 10,4 C 14,8 C 0,0 km/h
15.09.2013 00:00 14,6 C 72 % 1011,3 hPa 0,0 l/m 0,0 km/h NO 9,6 C 14,6 C 0,0 km/h
15.09.2013 01:00 14,4 C 71 % 1011,1 hPa 0,0 l/m 0,0 km/h SO 9,2 C 14,4 C 0,0 km/h
15.09.2013 02:00 14,4 C 68 % 1011,2 hPa 0,0 l/m 0,0 km/h SO 8,6 C 14,4 C 0,0 km/h
15.09.2013 03:00 14,5 C 66 % 1011,0 hPa 0,5 l/m 0,0 km/h NO 8,2 C 14,5 C 0,0 km/h
15.09.2013 04:00 14,2 C 65 % 1010,4 hPa 0,5 l/m 0,0 km/h NO 7,7 C 14,2 C 0,0 km/h
15.09.2013 05:00 14,1 C 64 % 1009,6 hPa 0,5 l/m 0,0 km/h O-NO 7,4 C 14,1 C 0,0 km/h
15.09.2013 06:00 13,9 C 63 % 1009,1 hPa 0,0 l/m 0,0 km/h O 7,0 C 13,9 C 0,0 km/h
15.09.2013 07:00 13,9 C 62 % 1009,1 hPa 0,5 l/m 0,0 km/h O-SO 6,7 C 13,9 C 0,0 km/h
15.09.2013 08:00 14,1 C 61 % 1009,0 hPa 0,0 l/m 0,0 km/h SO 6,7 C 14,1 C 0,0 km/h
15.09.2013 09:00 15,1 C 60 % 1009,3 hPa 1,0 l/m 1,9 km/h O-SO 7,4 C 15,1 C 1,1 km/h
15.09.2013 10:00 15,6 C 62 % 1009,4 hPa 0,0 l/m 0,0 km/h O-SO 8,3 C 15,6 C 0,0 km/h
15.09.2013 11:00 16,4 C 62 % 1009,4 hPa 0,0 l/m 0,0 km/h SO 9,1 C 16,4 C 0,0 km/h
15.09.2013 12:00 21,4 C 80 % 1009,2 hPa 0,0 l/m 0,0 km/h SW 17,8 C 21,4 C 0,0 km/h
15.09.2013 13:00 21,3 C 73 % 1009,0 hPa 0,0 l/m 0,0 km/h SW 16,3 C 21,3 C 0,0 km/h
15.09.2013 14:00 20,5 C 74 % 1008,5 hPa 0,0 l/m 7,8 km/h W-SW 15,7 C 20,0 C 4,3 km/h
15.09.2013 15:00 20,2 C 71 % 1007,8 hPa 0,0 l/m 1,9 km/h N 14,8 C 20,2 C 1,1 km/h
15.09.2013 16:00 16,4 C 81 % 1007,6 hPa 3,1 l/m 0,0 km/h W 13,1 C 16,4 C 0,0 km/h
15.09.2013 17:00 16,1 C 78 % 1007,7 hPa 9,8 l/m 0,0 km/h W 12,3 C 16,1 C 0,0 km/h
15.09.2013 18:00 15,6 C 73 % 1008,2 hPa 1,6 l/m 1,3 km/h W-NW 10,8 C 15,6 C 0,7 km/h
15.09.2013 19:00 14,4 C 68 % 1008,7 hPa 6,7 l/m 17,5 km/h W 8,6 C 9,7 C 9,7 km/h
15.09.2013 20:00 13,9 C 64 % 1009,5 hPa 6,2 l/m 0,0 km/h W 7,2 C 13,9 C 0,0 km/h
15.09.2013 21:00 13,6 C 62 % 1009,8 hPa 2,6 l/m 1,3 km/h W-SW 6,5 C 13,6 C 0,7 km/h
15.09.2013 22:00 13,6 C 62 % 1010,0 hPa 0,5 l/m 1,3 km/h W 6,5 C 13,6 C 0,7 km/h
15.09.2013 23:00 13,6 C 63 % 1010,0 hPa 0,0 l/m 3,2 km/h W-SW 6,7 C 13,6 C 1,8 km/h
Min-Datum _ 11.09.13 09.09.13 15.09.13 - 09.09.13 - 12.09.13 12.09.13 09.09.13
_ Min-Zeit 05:19 17:19 16:19 - 00:19 - 06:19 00:19 00:19
Minimum _ 7,9 C 36 % 1007,6 hPa - 0,0 km/h - 2,8 C 2,0 C 0,0 km/h
Max-Datum _ 09.09.13 11.09.13 13.09.13 15.09.13 12.09.13 - 15.09.13 10.09.13 12.09.13
_ Max-Zeit 17:19 09:19 11:19 17:19 00:19 - 12:19 17:19 00:19
Maximum _ 25,8 C 83 % 1020,5 hPa 9,8 l/m 32,4 km/h
SW
- 17,8 C 25,5 C 18,0 km/h
SW
Durchschnitt _ 14,6 C 70 % 1015,4 hPa #68,9 l/m 4,6 km/h W 9,1 C 13,7 C 2,5 km/h
www.sexauwetter.de